EGBO weather

Wolverhampton Halfpenny Green Airport
Wolverhampton, England, United Kingdom

Public forecast

Using degrees Celsius for public forecast. Weather courtesy of forecast.io.

Closest aviation weather report (METAR) to Wolverhampton Halfpenny Green Airport

Closest report is DCAE Cosford Air Base, 7.5 nm (14.0 km) NNW. Retrieved 2019/10/19 07:50 UTC (17 minutes ago):

EGWC 190750Z 23004KT 9999 SHRA SCT015 08/07 Q0997 RMK WHT

Closest aviation forecast (TAF) to Wolverhampton Halfpenny Green Airport

Closest forecast is Birmingham International Airport, 19.1 nm (35.3 km) ESE. Retrieved 2019/10/19 06:00 UTC (2 hours ago):

TAF EGBB 190502Z 1906/2006 20008KT 9999 FEW010 SCT030 PROB30 1906/1909 6000 BKN008 BECMG 1909/1912 27012KT TEMPO 1909/1918 6000 SHRA BECMG 1918/1921 VRB03KT PROB30 TEMPO 1921/1924 4000 BR BKN008 PROB30 2000/2006 1200 BR